sensor_id;sensor_type;location;lat;lon;timestamp;P1;durP1;ratioP1;P2;durP2;ratioP2
59310;SDS011;45078;51.654;21.250;2023-03-01T00:01:15;25.08;;;11.43;;
59310;SDS011;45078;51.654;21.250;2023-03-01T00:03:45;27.10;;;11.23;;
59310;SDS011;45078;51.654;21.250;2023-03-01T00:06:11;22.80;;;12.45;;
59310;SDS011;45078;51.654;21.250;2023-03-01T00:08:37;17.38;;;12.23;;
59310;SDS011;45078;51.654;21.250;2023-03-01T00:11:04;29.05;;;13.20;;
59310;SDS011;45078;51.654;21.250;2023-03-01T00:13:32;23.33;;;14.25;;
59310;SDS011;45078;51.654;21.250;2023-03-01T00:16:01;23.02;;;11.20;;
59310;SDS011;45078;51.654;21.250;2023-03-01T00:18:28;17.55;;;11.07;;
59310;SDS011;45078;51.654;21.250;2023-03-01T00:20:55;24.83;;;12.40;;
59310;SDS011;45078;51.654;21.250;2023-03-01T00:23:21;45.58;;;18.02;;
59310;SDS011;45078;51.654;21.250;2023-03-01T00:25:48;26.10;;;14.45;;
59310;SDS011;45078;51.654;21.250;2023-03-01T00:28:14;22.40;;;10.65;;
59310;SDS011;45078;51.654;21.250;2023-03-01T00:30:40;28.15;;;13.40;;
59310;SDS011;45078;51.654;21.250;2023-03-01T00:33:06;34.95;;;15.35;;
59310;SDS011;45078;51.654;21.250;2023-03-01T00:35:32;27.33;;;15.38;;
59310;SDS011;45078;51.654;21.250;2023-03-01T00:37:58;22.25;;;13.10;;
59310;SDS011;45078;51.654;21.250;2023-03-01T00:40:25;24.13;;;15.75;;
59310;SDS011;45078;51.654;21.250;2023-03-01T00:42:51;23.98;;;14.32;;
59310;SDS011;45078;51.654;21.250;2023-03-01T00:45:17;31.40;;;15.20;;
59310;SDS011;45078;51.654;21.250;2023-03-01T00:47:43;24.10;;;14.18;;
59310;SDS011;45078;51.654;21.250;2023-03-01T00:50:09;23.80;;;14.40;;
59310;SDS011;45078;51.654;21.250;2023-03-01T00:52:36;28.15;;;15.02;;
59310;SDS011;45078;51.654;21.250;2023-03-01T00:55:02;27.33;;;12.38;;
59310;SDS011;45078;51.654;21.250;2023-03-01T00:57:29;30.52;;;12.75;;
59310;SDS011;45078;51.654;21.250;2023-03-01T00:59:55;19.10;;;13.30;;
59310;SDS011;45078;51.654;21.250;2023-03-01T01:02:20;18.95;;;14.35;;
59310;SDS011;45078;51.654;21.250;2023-03-01T01:04:46;34.55;;;15.13;;
59310;SDS011;45078;51.654;21.250;2023-03-01T01:07:13;22.83;;;13.60;;
59310;SDS011;45078;51.654;21.250;2023-03-01T01:09:39;25.25;;;14.73;;
59310;SDS011;45078;51.654;21.250;2023-03-01T01:12:05;28.88;;;14.27;;
59310;SDS011;45078;51.654;21.250;2023-03-01T01:14:32;23.05;;;15.10;;
59310;SDS011;45078;51.654;21.250;2023-03-01T01:16:58;19.23;;;12.80;;
59310;SDS011;45078;51.654;21.250;2023-03-01T01:19:24;23.58;;;13.23;;
59310;SDS011;45078;51.654;21.250;2023-03-01T01:21:51;24.05;;;14.50;;
59310;SDS011;45078;51.654;21.250;2023-03-01T01:24:17;36.22;;;15.85;;
59310;SDS011;45078;51.654;21.250;2023-03-01T01:26:43;18.73;;;12.70;;
59310;SDS011;45078;51.654;21.250;2023-03-01T01:29:10;23.33;;;13.40;;
59310;SDS011;45078;51.654;21.250;2023-03-01T01:31:37;37.63;;;17.48;;
59310;SDS011;45078;51.654;21.250;2023-03-01T01:34:04;26.27;;;14.07;;
59310;SDS011;45078;51.654;21.250;2023-03-01T01:36:32;30.02;;;14.05;;
59310;SDS011;45078;51.654;21.250;2023-03-01T01:38:58;37.90;;;11.00;;
59310;SDS011;45078;51.654;21.250;2023-03-01T01:41:25;22.23;;;13.43;;
59310;SDS011;45078;51.654;21.250;2023-03-01T01:49:25;23.63;;;12.73;;
59310;SDS011;45078;51.654;21.250;2023-03-01T01:52:07;24.98;;;14.93;;
59310;SDS011;45078;51.654;21.250;2023-03-01T01:54:38;21.75;;;13.38;;
59310;SDS011;45078;51.654;21.250;2023-03-01T01:57:27;24.83;;;14.38;;
59310;SDS011;45078;51.654;21.250;2023-03-01T02:00:04;20.60;;;10.80;;
59310;SDS011;45078;51.654;21.250;2023-03-01T02:02:33;28.30;;;13.98;;
59310;SDS011;45078;51.654;21.250;2023-03-01T02:05:03;24.42;;;13.65;;
59310;SDS011;45078;51.654;21.250;2023-03-01T02:07:36;45.05;;;14.90;;
59310;SDS011;45078;51.654;21.250;2023-03-01T02:10:05;27.05;;;12.48;;
59310;SDS011;45078;51.654;21.250;2023-03-01T02:12:31;22.95;;;11.68;;
59310;SDS011;45078;51.654;21.250;2023-03-01T02:14:57;29.63;;;14.05;;
59310;SDS011;45078;51.654;21.250;2023-03-01T02:17:23;28.45;;;13.10;;
59310;SDS011;45078;51.654;21.250;2023-03-01T02:22:45;17.10;;;11.77;;
59310;SDS011;45078;51.654;21.250;2023-03-01T02:25:20;27.70;;;14.48;;
59310;SDS011;45078;51.654;21.250;2023-03-01T02:28:08;29.88;;;13.27;;
59310;SDS011;45078;51.654;21.250;2023-03-01T02:30:40;30.15;;;12.07;;
59310;SDS011;45078;51.654;21.250;2023-03-01T02:33:28;20.00;;;14.38;;
59310;SDS011;45078;51.654;21.250;2023-03-01T02:35:59;19.88;;;11.85;;
59310;SDS011;45078;51.654;21.250;2023-03-01T02:38:27;22.73;;;13.73;;
59310;SDS011;45078;51.654;21.250;2023-03-01T02:40:53;19.42;;;12.52;;
59310;SDS011;45078;51.654;21.250;2023-03-01T02:43:22;22.52;;;12.43;;
59310;SDS011;45078;51.654;21.250;2023-03-01T02:45:53;20.52;;;12.65;;
59310;SDS011;45078;51.654;21.250;2023-03-01T02:48:22;26.23;;;12.98;;
59310;SDS011;45078;51.654;21.250;2023-03-01T02:50:52;28.55;;;14.70;;
59310;SDS011;45078;51.654;21.250;2023-03-01T02:55:57;15.57;;;10.85;;
59310;SDS011;45078;51.654;21.250;2023-03-01T02:58:24;33.08;;;13.82;;
59310;SDS011;45078;51.654;21.250;2023-03-01T03:00:50;21.17;;;11.30;;
59310;SDS011;45078;51.654;21.250;2023-03-01T03:03:16;21.45;;;14.13;;
59310;SDS011;45078;51.654;21.250;2023-03-01T03:05:44;26.60;;;13.82;;
59310;SDS011;45078;51.654;21.250;2023-03-01T03:08:10;27.25;;;15.88;;
59310;SDS011;45078;51.654;21.250;2023-03-01T03:10:38;21.52;;;12.43;;
59310;SDS011;45078;51.654;21.250;2023-03-01T03:13:14;26.67;;;14.98;;
59310;SDS011;45078;51.654;21.250;2023-03-01T03:15:40;27.95;;;13.35;;
59310;SDS011;45078;51.654;21.250;2023-03-01T03:18:11;25.45;;;14.32;;
59310;SDS011;45078;51.654;21.250;2023-03-01T03:20:39;18.77;;;12.13;;
59310;SDS011;45078;51.654;21.250;2023-03-01T03:23:06;20.70;;;10.70;;
59310;SDS011;45078;51.654;21.250;2023-03-01T03:25:32;24.65;;;13.52;;
59310;SDS011;45078;51.654;21.250;2023-03-01T03:28:03;22.60;;;12.55;;
59310;SDS011;45078;51.654;21.250;2023-03-01T03:30:34;28.90;;;15.80;;
59310;SDS011;45078;51.654;21.250;2023-03-01T03:33:04;33.90;;;18.00;;
59310;SDS011;45078;51.654;21.250;2023-03-01T03:35:37;25.73;;;14.77;;
59310;SDS011;45078;51.654;21.250;2023-03-01T03:38:07;25.33;;;12.48;;
59310;SDS011;45078;51.654;21.250;2023-03-01T03:40:41;22.95;;;12.52;;
59310;SDS011;45078;51.654;21.250;2023-03-01T03:43:13;18.83;;;11.32;;
59310;SDS011;45078;51.654;21.250;2023-03-01T03:45:40;24.58;;;12.93;;
59310;SDS011;45078;51.654;21.250;2023-03-01T03:48:07;20.00;;;12.50;;
59310;SDS011;45078;51.654;21.250;2023-03-01T03:50:35;23.30;;;13.75;;
59310;SDS011;45078;51.654;21.250;2023-03-01T03:53:02;24.20;;;11.73;;
59310;SDS011;45078;51.654;21.250;2023-03-01T03:55:31;26.92;;;13.80;;
59310;SDS011;45078;51.654;21.250;2023-03-01T03:57:59;26.05;;;13.68;;
59310;SDS011;45078;51.654;21.250;2023-03-01T04:00:32;25.83;;;13.32;;
59310;SDS011;45078;51.654;21.250;2023-03-01T04:03:08;28.30;;;12.15;;
59310;SDS011;45078;51.654;21.250;2023-03-01T04:05:36;26.17;;;11.77;;
59310;SDS011;45078;51.654;21.250;2023-03-01T04:08:03;25.00;;;13.07;;
59310;SDS011;45078;51.654;21.250;2023-03-01T04:10:35;14.43;;;9.68;;
59310;SDS011;45078;51.654;21.250;2023-03-01T04:13:17;19.98;;;11.23;;
59310;SDS011;45078;51.654;21.250;2023-03-01T04:15:49;35.53;;;11.63;;
59310;SDS011;45078;51.654;21.250;2023-03-01T04:18:16;22.08;;;12.35;;
59310;SDS011;45078;51.654;21.250;2023-03-01T04:20:43;21.92;;;12.13;;
59310;SDS011;45078;51.654;21.250;2023-03-01T04:23:13;19.88;;;11.02;;
59310;SDS011;45078;51.654;21.250;2023-03-01T04:25:47;29.55;;;11.38;;
59310;SDS011;45078;51.654;21.250;2023-03-01T04:28:19;20.10;;;12.52;;
59310;SDS011;45078;51.654;21.250;2023-03-01T04:30:52;28.48;;;12.88;;
59310;SDS011;45078;51.654;21.250;2023-03-01T04:33:19;21.65;;;13.10;;
59310;SDS011;45078;51.654;21.250;2023-03-01T04:35:45;20.48;;;13.20;;
59310;SDS011;45078;51.654;21.250;2023-03-01T04:38:14;20.23;;;13.02;;
59310;SDS011;45078;51.654;21.250;2023-03-01T04:40:44;24.38;;;12.48;;
59310;SDS011;45078;51.654;21.250;2023-03-01T04:43:10;36.40;;;13.90;;
59310;SDS011;45078;51.654;21.250;2023-03-01T04:45:39;26.75;;;12.88;;
59310;SDS011;45078;51.654;21.250;2023-03-01T04:48:05;16.35;;;10.82;;
59310;SDS011;45078;51.654;21.250;2023-03-01T04:50:31;20.20;;;8.50;;
59310;SDS011;45078;51.654;21.250;2023-03-01T04:52:57;17.80;;;10.55;;
59310;SDS011;45078;51.654;21.250;2023-03-01T04:55:26;16.50;;;10.73;;
59310;SDS011;45078;51.654;21.250;2023-03-01T04:57:52;23.23;;;11.82;;
59310;SDS011;45078;51.654;21.250;2023-03-01T05:00:19;19.08;;;11.32;;
59310;SDS011;45078;51.654;21.250;2023-03-01T05:02:48;17.52;;;11.05;;
59310;SDS011;45078;51.654;21.250;2023-03-01T05:05:18;16.10;;;9.57;;
59310;SDS011;45078;51.654;21.250;2023-03-01T05:07:45;24.52;;;10.93;;
59310;SDS011;45078;51.654;21.250;2023-03-01T05:10:11;19.40;;;11.05;;
59310;SDS011;45078;51.654;21.250;2023-03-01T05:12:37;30.70;;;11.05;;
59310;SDS011;45078;51.654;21.250;2023-03-01T05:15:03;17.95;;;12.10;;
59310;SDS011;45078;51.654;21.250;2023-03-01T05:17:32;29.92;;;13.55;;
59310;SDS011;45078;51.654;21.250;2023-03-01T05:19:59;17.48;;;10.88;;
59310;SDS011;45078;51.654;21.250;2023-03-01T05:22:25;24.05;;;11.68;;
59310;SDS011;45078;51.654;21.250;2023-03-01T05:24:51;31.63;;;13.23;;
59310;SDS011;45078;51.654;21.250;2023-03-01T05:27:19;31.65;;;13.35;;
59310;SDS011;45078;51.654;21.250;2023-03-01T05:29:47;29.58;;;13.20;;
59310;SDS011;45078;51.654;21.250;2023-03-01T05:32:13;26.63;;;12.57;;
59310;SDS011;45078;51.654;21.250;2023-03-01T05:34:40;21.88;;;11.02;;
59310;SDS011;45078;51.654;21.250;2023-03-01T05:37:07;25.55;;;12.82;;
59310;SDS011;45078;51.654;21.250;2023-03-01T05:39:33;28.52;;;12.40;;
59310;SDS011;45078;51.654;21.250;2023-03-01T05:42:00;23.40;;;11.25;;
59310;SDS011;45078;51.654;21.250;2023-03-01T05:44:27;23.75;;;11.55;;
59310;SDS011;45078;51.654;21.250;2023-03-01T05:46:53;24.50;;;9.95;;
59310;SDS011;45078;51.654;21.250;2023-03-01T05:49:20;25.58;;;9.85;;
59310;SDS011;45078;51.654;21.250;2023-03-01T05:51:49;19.98;;;12.32;;
59310;SDS011;45078;51.654;21.250;2023-03-01T05:54:17;24.55;;;12.07;;
59310;SDS011;45078;51.654;21.250;2023-03-01T05:56:44;28.27;;;13.80;;
59310;SDS011;45078;51.654;21.250;2023-03-01T05:59:10;36.35;;;13.70;;
59310;SDS011;45078;51.654;21.250;2023-03-01T06:01:36;20.63;;;12.52;;
59310;SDS011;45078;51.654;21.250;2023-03-01T06:04:03;28.27;;;12.30;;
59310;SDS011;45078;51.654;21.250;2023-03-01T06:06:29;19.75;;;9.98;;
59310;SDS011;45078;51.654;21.250;2023-03-01T06:08:58;28.70;;;13.18;;
59310;SDS011;45078;51.654;21.250;2023-03-01T06:11:24;31.63;;;11.88;;
59310;SDS011;45078;51.654;21.250;2023-03-01T06:13:50;22.70;;;12.27;;
59310;SDS011;45078;51.654;21.250;2023-03-01T06:16:15;45.08;;;11.30;;
59310;SDS011;45078;51.654;21.250;2023-03-01T06:18:41;27.33;;;13.38;;
59310;SDS011;45078;51.654;21.250;2023-03-01T06:21:07;26.02;;;12.05;;
59310;SDS011;45078;51.654;21.250;2023-03-01T06:23:34;26.23;;;13.60;;
59310;SDS011;45078;51.654;21.250;2023-03-01T06:26:00;30.98;;;12.35;;
59310;SDS011;45078;51.654;21.250;2023-03-01T06:28:29;32.85;;;14.45;;
59310;SDS011;45078;51.654;21.250;2023-03-01T06:30:55;30.20;;;13.15;;
59310;SDS011;45078;51.654;21.250;2023-03-01T06:33:21;29.30;;;12.77;;
59310;SDS011;45078;51.654;21.250;2023-03-01T06:35:49;31.92;;;12.63;;
59310;SDS011;45078;51.654;21.250;2023-03-01T06:38:15;27.90;;;13.27;;
59310;SDS011;45078;51.654;21.250;2023-03-01T06:40:43;39.72;;;14.52;;
59310;SDS011;45078;51.654;21.250;2023-03-01T06:43:09;35.13;;;14.32;;
59310;SDS011;45078;51.654;21.250;2023-03-01T06:45:36;42.55;;;15.55;;
59310;SDS011;45078;51.654;21.250;2023-03-01T06:48:05;38.25;;;15.18;;
59310;SDS011;45078;51.654;21.250;2023-03-01T06:50:32;29.98;;;13.50;;
59310;SDS011;45078;51.654;21.250;2023-03-01T06:52:59;38.05;;;14.07;;
59310;SDS011;45078;51.654;21.250;2023-03-01T06:55:25;36.05;;;13.55;;
59310;SDS011;45078;51.654;21.250;2023-03-01T06:57:58;42.05;;;16.35;;
59310;SDS011;45078;51.654;21.250;2023-03-01T07:02:50;42.08;;;16.27;;
59310;SDS011;45078;51.654;21.250;2023-03-01T07:05:16;33.00;;;14.70;;
59310;SDS011;45078;51.654;21.250;2023-03-01T07:07:42;39.35;;;15.68;;
59310;SDS011;45078;51.654;21.250;2023-03-01T07:10:08;31.35;;;13.07;;
59310;SDS011;45078;51.654;21.250;2023-03-01T07:12:34;35.78;;;15.13;;
59310;SDS011;45078;51.654;21.250;2023-03-01T07:15:00;34.40;;;14.60;;
59310;SDS011;45078;51.654;21.250;2023-03-01T07:17:26;36.22;;;14.85;;
59310;SDS011;45078;51.654;21.250;2023-03-01T07:19:52;32.55;;;13.48;;
59310;SDS011;45078;51.654;21.250;2023-03-01T07:22:18;37.85;;;13.30;;
59310;SDS011;45078;51.654;21.250;2023-03-01T07:24:44;28.85;;;12.77;;
59310;SDS011;45078;51.654;21.250;2023-03-01T07:27:09;23.77;;;11.55;;
59310;SDS011;45078;51.654;21.250;2023-03-01T07:29:35;33.10;;;12.77;;
59310;SDS011;45078;51.654;21.250;2023-03-01T07:32:02;32.95;;;13.48;;
59310;SDS011;45078;51.654;21.250;2023-03-01T07:34:28;28.17;;;12.32;;
59310;SDS011;45078;51.654;21.250;2023-03-01T07:36:54;26.90;;;12.27;;
59310;SDS011;45078;51.654;21.250;2023-03-01T07:39:20;25.15;;;11.15;;
59310;SDS011;45078;51.654;21.250;2023-03-01T07:41:48;25.77;;;11.32;;
59310;SDS011;45078;51.654;21.250;2023-03-01T07:44:14;32.28;;;11.10;;
59310;SDS011;45078;51.654;21.250;2023-03-01T07:46:41;33.08;;;12.75;;
59310;SDS011;45078;51.654;21.250;2023-03-01T07:49:07;30.13;;;12.20;;
59310;SDS011;45078;51.654;21.250;2023-03-01T07:51:33;35.55;;;12.40;;
59310;SDS011;45078;51.654;21.250;2023-03-01T07:53:58;25.45;;;10.95;;
59310;SDS011;45078;51.654;21.250;2023-03-01T07:56:24;26.65;;;10.80;;
59310;SDS011;45078;51.654;21.250;2023-03-01T07:58:50;29.38;;;11.07;;
59310;SDS011;45078;51.654;21.250;2023-03-01T08:01:17;30.08;;;11.00;;
59310;SDS011;45078;51.654;21.250;2023-03-01T08:03:45;26.35;;;9.07;;
59310;SDS011;45078;51.654;21.250;2023-03-01T08:06:11;24.85;;;10.18;;
59310;SDS011;45078;51.654;21.250;2023-03-01T08:08:39;26.08;;;11.65;;
59310;SDS011;45078;51.654;21.250;2023-03-01T08:11:05;21.50;;;9.60;;
59310;SDS011;45078;51.654;21.250;2023-03-01T08:13:32;25.25;;;10.05;;
59310;SDS011;45078;51.654;21.250;2023-03-01T08:16:02;36.05;;;13.05;;
59310;SDS011;45078;51.654;21.250;2023-03-01T08:18:29;28.25;;;10.07;;
59310;SDS011;45078;51.654;21.250;2023-03-01T08:20:55;24.20;;;11.00;;
59310;SDS011;45078;51.654;21.250;2023-03-01T08:23:21;18.13;;;8.57;;
59310;SDS011;45078;51.654;21.250;2023-03-01T08:25:47;18.77;;;8.90;;
59310;SDS011;45078;51.654;21.250;2023-03-01T08:28:12;24.33;;;10.80;;
59310;SDS011;45078;51.654;21.250;2023-03-01T08:30:38;29.42;;;12.88;;
59310;SDS011;45078;51.654;21.250;2023-03-01T08:33:04;30.15;;;11.27;;
59310;SDS011;45078;51.654;21.250;2023-03-01T08:35:30;31.25;;;12.77;;
59310;SDS011;45078;51.654;21.250;2023-03-01T08:37:55;28.73;;;11.65;;
59310;SDS011;45078;51.654;21.250;2023-03-01T08:40:21;23.85;;;10.52;;
59310;SDS011;45078;51.654;21.250;2023-03-01T08:42:47;22.75;;;10.43;;
59310;SDS011;45078;51.654;21.250;2023-03-01T08:45:12;19.90;;;8.65;;
59310;SDS011;45078;51.654;21.250;2023-03-01T08:47:43;28.67;;;11.38;;
59310;SDS011;45078;51.654;21.250;2023-03-01T08:50:09;29.42;;;12.20;;
59310;SDS011;45078;51.654;21.250;2023-03-01T08:52:35;22.45;;;9.40;;
59310;SDS011;45078;51.654;21.250;2023-03-01T08:55:01;31.50;;;13.02;;
59310;SDS011;45078;51.654;21.250;2023-03-01T08:57:27;28.02;;;12.13;;
59310;SDS011;45078;51.654;21.250;2023-03-01T08:59:52;31.58;;;11.85;;
59310;SDS011;45078;51.654;21.250;2023-03-01T09:02:21;28.35;;;11.30;;
59310;SDS011;45078;51.654;21.250;2023-03-01T09:04:47;28.58;;;11.55;;
59310;SDS011;45078;51.654;21.250;2023-03-01T09:07:13;28.98;;;12.52;;
59310;SDS011;45078;51.654;21.250;2023-03-01T09:09:38;26.65;;;10.77;;
59310;SDS011;45078;51.654;21.250;2023-03-01T09:12:04;28.33;;;11.98;;
59310;SDS011;45078;51.654;21.250;2023-03-01T09:14:30;23.48;;;9.50;;
59310;SDS011;45078;51.654;21.250;2023-03-01T09:16:56;27.30;;;10.85;;
59310;SDS011;45078;51.654;21.250;2023-03-01T09:19:22;26.10;;;9.82;;
59310;SDS011;45078;51.654;21.250;2023-03-01T09:21:48;24.98;;;10.57;;
59310;SDS011;45078;51.654;21.250;2023-03-01T09:24:21;28.52;;;11.73;;
59310;SDS011;45078;51.654;21.250;2023-03-01T09:26:48;20.58;;;8.85;;
59310;SDS011;45078;51.654;21.250;2023-03-01T09:29:15;14.25;;;7.57;;
59310;SDS011;45078;51.654;21.250;2023-03-01T09:31:41;19.02;;;7.97;;
59310;SDS011;45078;51.654;21.250;2023-03-01T09:34:08;22.25;;;9.80;;
59310;SDS011;45078;51.654;21.250;2023-03-01T09:36:35;22.05;;;10.85;;
59310;SDS011;45078;51.654;21.250;2023-03-01T09:39:01;16.85;;;8.50;;
59310;SDS011;45078;51.654;21.250;2023-03-01T09:41:50;24.48;;;9.65;;
59310;SDS011;45078;51.654;21.250;2023-03-01T09:47:02;21.67;;;10.68;;
59310;SDS011;45078;51.654;21.250;2023-03-01T09:49:39;24.38;;;9.35;;
59310;SDS011;45078;51.654;21.250;2023-03-01T09:52:21;20.52;;;8.68;;
59310;SDS011;45078;51.654;21.250;2023-03-01T09:54:56;21.75;;;8.93;;
59310;SDS011;45078;51.654;21.250;2023-03-01T10:03:07;20.13;;;9.15;;
59310;SDS011;45078;51.654;21.250;2023-03-01T10:08:36;23.45;;;9.48;;
59310;SDS011;45078;51.654;21.250;2023-03-01T10:11:26;19.30;;;8.85;;
59310;SDS011;45078;51.654;21.250;2023-03-01T10:19:28;19.33;;;8.35;;
59310;SDS011;45078;51.654;21.250;2023-03-01T10:22:11;21.25;;;7.53;;
59310;SDS011;45078;51.654;21.250;2023-03-01T10:24:40;19.73;;;8.15;;
59310;SDS011;45078;51.654;21.250;2023-03-01T10:27:11;15.48;;;6.55;;
59310;SDS011;45078;51.654;21.250;2023-03-01T10:32:23;15.63;;;7.30;;
59310;SDS011;45078;51.654;21.250;2023-03-01T10:34:50;16.23;;;7.00;;
59310;SDS011;45078;51.654;21.250;2023-03-01T10:37:17;9.77;;;5.75;;
59310;SDS011;45078;51.654;21.250;2023-03-01T10:42:36;13.18;;;6.15;;
59310;SDS011;45078;51.654;21.250;2023-03-01T10:50:46;14.57;;;6.55;;
59310;SDS011;45078;51.654;21.250;2023-03-01T10:53:21;15.52;;;7.03;;
59310;SDS011;45078;51.654;21.250;2023-03-01T10:55:58;14.35;;;7.15;;
59310;SDS011;45078;51.654;21.250;2023-03-01T11:01:27;12.43;;;6.13;;
59310;SDS011;45078;51.654;21.250;2023-03-01T11:04:07;15.25;;;5.70;;
59310;SDS011;45078;51.654;21.250;2023-03-01T11:06:37;14.02;;;5.93;;
59310;SDS011;45078;51.654;21.250;2023-03-01T11:12:01;16.40;;;6.70;;
59310;SDS011;45078;51.654;21.250;2023-03-01T11:14:27;10.90;;;5.88;;
59310;SDS011;45078;51.654;21.250;2023-03-01T11:16:59;17.20;;;6.30;;
59310;SDS011;45078;51.654;21.250;2023-03-01T11:19:40;7.75;;;3.67;;
59310;SDS011;45078;51.654;21.250;2023-03-01T11:22:12;13.18;;;5.00;;
59310;SDS011;45078;51.654;21.250;2023-03-01T11:24:48;9.98;;;4.88;;
59310;SDS011;45078;51.654;21.250;2023-03-01T11:29:46;10.48;;;4.85;;
59310;SDS011;45078;51.654;21.250;2023-03-01T11:32:18;11.55;;;5.43;;
59310;SDS011;45078;51.654;21.250;2023-03-01T11:34:56;12.02;;;5.10;;
59310;SDS011;45078;51.654;21.250;2023-03-01T11:37:32;12.50;;;4.82;;
59310;SDS011;45078;51.654;21.250;2023-03-01T11:51:13;15.15;;;5.30;;
59310;SDS011;45078;51.654;21.250;2023-03-01T11:56:57;9.55;;;5.13;;
59310;SDS011;45078;51.654;21.250;2023-03-01T12:05:05;11.18;;;5.03;;
59310;SDS011;45078;51.654;21.250;2023-03-01T12:17:05;14.30;;;5.22;;
59310;SDS011;45078;51.654;21.250;2023-03-01T12:25:22;15.43;;;6.22;;
59310;SDS011;45078;51.654;21.250;2023-03-01T12:36:47;12.40;;;5.90;;
59310;SDS011;45078;51.654;21.250;2023-03-01T12:39:28;12.70;;;6.28;;
59310;SDS011;45078;51.654;21.250;2023-03-01T12:42:14;10.95;;;5.13;;
59310;SDS011;45078;51.654;21.250;2023-03-01T12:47:42;11.40;;;5.07;;
59310;SDS011;45078;51.654;21.250;2023-03-01T12:53:07;11.10;;;5.07;;
59310;SDS011;45078;51.654;21.250;2023-03-01T12:56:08;13.88;;;5.65;;
59310;SDS011;45078;51.654;21.250;2023-03-01T13:04:15;15.52;;;5.95;;
59310;SDS011;45078;51.654;21.250;2023-03-01T13:18:01;13.25;;;6.15;;
59310;SDS011;45078;51.654;21.250;2023-03-01T13:20:45;12.05;;;5.65;;
59310;SDS011;45078;51.654;21.250;2023-03-01T13:23:35;12.70;;;5.65;;
59310;SDS011;45078;51.654;21.250;2023-03-01T13:28:49;10.77;;;5.07;;
59310;SDS011;45078;51.654;21.250;2023-03-01T13:33:50;10.35;;;5.20;;
59310;SDS011;45078;51.654;21.250;2023-03-01T13:39:02;11.05;;;4.88;;
59310;SDS011;45078;51.654;21.250;2023-03-01T13:44:27;12.25;;;5.88;;
59310;SDS011;45078;51.654;21.250;2023-03-01T13:47:08;10.25;;;5.10;;
59310;SDS011;45078;51.654;21.250;2023-03-01T13:49:52;14.25;;;5.32;;
59310;SDS011;45078;51.654;21.250;2023-03-01T13:55:20;11.55;;;4.85;;
59310;SDS011;45078;51.654;21.250;2023-03-01T13:57:53;10.60;;;5.50;;
59310;SDS011;45078;51.654;21.250;2023-03-01T14:05:33;12.05;;;5.30;;
59310;SDS011;45078;51.654;21.250;2023-03-01T14:08:01;12.05;;;5.63;;
59310;SDS011;45078;51.654;21.250;2023-03-01T14:10:31;10.75;;;5.60;;
59310;SDS011;45078;51.654;21.250;2023-03-01T14:15:39;10.32;;;5.20;;
59310;SDS011;45078;51.654;21.250;2023-03-01T14:18:14;11.02;;;4.70;;
59310;SDS011;45078;51.654;21.250;2023-03-01T14:20:49;13.77;;;5.72;;
59310;SDS011;45078;51.654;21.250;2023-03-01T14:23:18;12.30;;;5.53;;
59310;SDS011;45078;51.654;21.250;2023-03-01T14:25:52;12.88;;;5.97;;
59310;SDS011;45078;51.654;21.250;2023-03-01T14:28:24;10.45;;;5.13;;
59310;SDS011;45078;51.654;21.250;2023-03-01T14:31:02;13.63;;;5.57;;
59310;SDS011;45078;51.654;21.250;2023-03-01T14:38:33;17.77;;;5.78;;
59310;SDS011;45078;51.654;21.250;2023-03-01T14:41:11;14.70;;;5.90;;
59310;SDS011;45078;51.654;21.250;2023-03-01T14:43:53;10.07;;;5.45;;
59310;SDS011;45078;51.654;21.250;2023-03-01T14:46:30;14.30;;;6.55;;
59310;SDS011;45078;51.654;21.250;2023-03-01T14:48:58;13.15;;;6.07;;
59310;SDS011;45078;51.654;21.250;2023-03-01T14:53:59;8.50;;;4.60;;
59310;SDS011;45078;51.654;21.250;2023-03-01T14:56:25;10.60;;;4.75;;
59310;SDS011;45078;51.654;21.250;2023-03-01T14:58:52;9.27;;;4.93;;
59310;SDS011;45078;51.654;21.250;2023-03-01T15:01:22;8.20;;;4.32;;
59310;SDS011;45078;51.654;21.250;2023-03-01T15:03:48;9.60;;;4.38;;
59310;SDS011;45078;51.654;21.250;2023-03-01T15:06:17;9.82;;;4.38;;
59310;SDS011;45078;51.654;21.250;2023-03-01T15:08:46;10.13;;;4.55;;
59310;SDS011;45078;51.654;21.250;2023-03-01T15:11:23;10.48;;;5.38;;
59310;SDS011;45078;51.654;21.250;2023-03-01T15:13:54;10.52;;;4.63;;
59310;SDS011;45078;51.654;21.250;2023-03-01T15:19:04;9.05;;;4.43;;
59310;SDS011;45078;51.654;21.250;2023-03-01T15:21:37;10.43;;;4.60;;
59310;SDS011;45078;51.654;21.250;2023-03-01T15:24:18;9.00;;;4.70;;
59310;SDS011;45078;51.654;21.250;2023-03-01T15:29:27;9.15;;;4.93;;
59310;SDS011;45078;51.654;21.250;2023-03-01T15:32:03;10.43;;;4.95;;
59310;SDS011;45078;51.654;21.250;2023-03-01T15:34:49;11.52;;;4.53;;
59310;SDS011;45078;51.654;21.250;2023-03-01T15:42:56;7.57;;;3.92;;
59310;SDS011;45078;51.654;21.250;2023-03-01T15:45:24;10.98;;;4.03;;
59310;SDS011;45078;51.654;21.250;2023-03-01T15:47:56;8.13;;;3.90;;
59310;SDS011;45078;51.654;21.250;2023-03-01T15:50:29;10.95;;;4.53;;
59310;SDS011;45078;51.654;21.250;2023-03-01T15:52:56;8.32;;;3.85;;
59310;SDS011;45078;51.654;21.250;2023-03-01T15:58:00;10.38;;;3.88;;
59310;SDS011;45078;51.654;21.250;2023-03-01T16:00:28;9.25;;;3.85;;
59310;SDS011;45078;51.654;21.250;2023-03-01T16:02:54;8.73;;;3.85;;
59310;SDS011;45078;51.654;21.250;2023-03-01T16:05:21;8.93;;;3.40;;
59310;SDS011;45078;51.654;21.250;2023-03-01T16:07:58;8.73;;;4.00;;
59310;SDS011;45078;51.654;21.250;2023-03-01T16:10:24;8.25;;;4.20;;
59310;SDS011;45078;51.654;21.250;2023-03-01T16:12:50;7.55;;;3.80;;
59310;SDS011;45078;51.654;21.250;2023-03-01T16:17:55;9.52;;;3.03;;
59310;SDS011;45078;51.654;21.250;2023-03-01T16:20:23;9.90;;;4.20;;
59310;SDS011;45078;51.654;21.250;2023-03-01T16:22:50;9.02;;;4.13;;
59310;SDS011;45078;51.654;21.250;2023-03-01T16:25:17;8.02;;;3.40;;
59310;SDS011;45078;51.654;21.250;2023-03-01T16:27:45;10.40;;;3.75;;
59310;SDS011;45078;51.654;21.250;2023-03-01T16:30:12;11.02;;;4.82;;
59310;SDS011;45078;51.654;21.250;2023-03-01T16:32:40;11.38;;;4.15;;
59310;SDS011;45078;51.654;21.250;2023-03-01T16:35:07;8.68;;;4.15;;
59310;SDS011;45078;51.654;21.250;2023-03-01T16:37:34;14.77;;;3.80;;
59310;SDS011;45078;51.654;21.250;2023-03-01T16:40:00;7.30;;;3.58;;
59310;SDS011;45078;51.654;21.250;2023-03-01T16:42:33;8.90;;;3.92;;
59310;SDS011;45078;51.654;21.250;2023-03-01T16:45:00;10.55;;;4.22;;
59310;SDS011;45078;51.654;21.250;2023-03-01T16:47:26;7.47;;;4.20;;
59310;SDS011;45078;51.654;21.250;2023-03-01T16:49:53;9.48;;;4.28;;
59310;SDS011;45078;51.654;21.250;2023-03-01T16:52:20;11.43;;;4.35;;
59310;SDS011;45078;51.654;21.250;2023-03-01T16:54:46;9.27;;;3.67;;
59310;SDS011;45078;51.654;21.250;2023-03-01T16:57:12;12.65;;;4.68;;
59310;SDS011;45078;51.654;21.250;2023-03-01T16:59:39;8.63;;;4.25;;
59310;SDS011;45078;51.654;21.250;2023-03-01T17:02:05;11.73;;;4.38;;
59310;SDS011;45078;51.654;21.250;2023-03-01T17:04:36;9.93;;;4.60;;
59310;SDS011;45078;51.654;21.250;2023-03-01T17:07:02;15.65;;;5.47;;
59310;SDS011;45078;51.654;21.250;2023-03-01T17:09:28;10.02;;;4.60;;